Time;durP1;ratioP1;P1;durP2;ratioP2;P2;SDS_P1;SDS_P2;PMS_P1;PMS_P2;Temp;Humidity;BMP_temperature;BMP_pressure;BME280_temperature;BME280_humidity;BME280_pressure;Samples;Min_cycle;Max_cycle;Signal;HPM_P1;HPM_P2
2023/08/20 00:02:02;;;;;;;9.23;7.10;;;17.90;99.90;;;;;;1931606;73;25176;-88
2023/08/20 00:04:51;;;;;;;11.93;7.00;;;17.90;99.90;;;;;;1926372;73;25275;-88
2023/08/20 00:10:21;;;;;;;10.67;6.87;;;17.90;99.90;;;;;;1930130;72;27636;-87
2023/08/20 00:13:09;;;;;;;14.30;6.70;;;17.80;99.90;;;;;;1892292;74;25219;-87
2023/08/20 00:15:59;;;;;;;11.30;7.00;;;17.70;99.90;;;;;;1894720;75;25897;-88
2023/08/20 00:18:49;;;;;;;11.07;7.17;;;17.70;99.90;;;;;;1897143;75;25152;-88
2023/08/20 00:21:39;;;;;;;9.80;7.57;;;17.70;99.90;;;;;;1876635;74;25243;-88
2023/08/20 00:24:29;;;;;;;10.30;7.40;;;17.70;99.90;;;;;;1883629;75;25270;-88
2023/08/20 00:27:17;;;;;;;13.17;7.40;;;17.70;99.90;;;;;;1883810;75;25194;-88
2023/08/20 00:30:08;;;;;;;9.83;7.43;;;17.70;99.90;;;;;;1888217;75;25222;-87
2023/08/20 00:35:39;;;;;;;10.03;7.07;;;17.60;99.90;;;;;;1928872;72;27078;-87
2023/08/20 00:52:32;;;;;;;12.50;7.33;;;17.60;99.90;;;;;;1989912;71;27102;-88
2023/08/20 00:55:21;;;;;;;14.07;7.17;;;17.60;99.90;;;;;;1957185;72;25170;-88
2023/08/20 00:58:10;;;;;;;11.03;6.93;;;17.60;99.90;;;;;;1948352;72;25669;-87
2023/08/20 01:00:59;;;;;;;8.33;6.63;;;17.60;99.90;;;;;;1951451;72;25679;-88
2023/08/20 01:03:47;;;;;;;9.93;7.27;;;17.50;99.90;;;;;;1931783;74;25228;-88
2023/08/20 01:09:36;;;;;;;11.93;8.13;;;17.50;99.90;;;;;;2051298;69;27401;-87
2023/08/20 01:12:25;;;;;;;10.03;6.67;;;17.50;99.90;;;;;;1997195;70;25224;-87
2023/08/20 01:15:14;;;;;;;11.13;6.67;;;17.50;99.90;;;;;;1994159;70;25267;-87
2023/08/20 01:18:04;;;;;;;9.50;7.70;;;17.40;99.90;;;;;;2004212;71;25355;-88
2023/08/20 01:20:58;;;;;;;9.27;6.53;;;17.40;99.90;;;;;;2006897;71;25204;-87
2023/08/20 01:27:10;;;;;;;12.97;6.57;;;17.40;99.90;;;;;;1956842;72;26920;-88
2023/08/20 01:30:00;;;;;;;9.77;6.17;;;17.40;99.90;;;;;;1942022;73;25277;-88
2023/08/20 01:49:28;;;;;;;10.03;7.00;;;17.40;99.90;;;;;;1947568;72;27111;-89
2023/08/20 01:52:18;;;;;;;12.67;6.57;;;17.30;99.90;;;;;;1918925;73;25181;-87
2023/08/20 01:55:07;;;;;;;10.17;6.53;;;17.30;99.90;;;;;;1921047;73;25269;-88
2023/08/20 01:57:56;;;;;;;11.17;6.43;;;17.30;99.90;;;;;;1927841;73;25316;-89
2023/08/20 02:00:47;;;;;;;10.53;6.50;;;17.20;99.90;;;;;;1930394;73;25358;-89
2023/08/20 02:03:39;;;;;;;8.40;6.30;;;17.20;99.90;;;;;;1932435;73;25731;-89
2023/08/20 02:06:28;;;;;;;7.70;6.17;;;17.20;99.90;;;;;;1937910;73;25729;-89
2023/08/20 02:09:19;;;;;;;8.63;6.33;;;17.20;99.90;;;;;;1926897;73;25228;-89
2023/08/20 02:12:09;;;;;;;6.57;4.83;;;17.20;99.90;;;;;;1861241;76;25249;-89
2023/08/20 02:14:57;;;;;;;8.73;6.40;;;17.20;99.90;;;;;;1927434;73;26484;-89
2023/08/20 02:17:46;;;;;;;8.47;6.60;;;17.10;99.90;;;;;;1914756;73;25178;-88
2023/08/20 02:20:35;;;;;;;10.97;6.40;;;17.20;99.90;;;;;;1920083;73;25223;-87
2023/08/20 02:23:24;;;;;;;8.90;6.70;;;17.10;99.90;;;;;;1927876;73;25897;-87
2023/08/20 02:29:56;;;;;;;9.33;6.37;;;17.10;99.90;;;;;;1972954;71;27044;-88
2023/08/20 02:32:45;;;;;;;8.27;6.67;;;17.20;99.90;;;;;;1996360;72;25186;-88
2023/08/20 02:35:33;;;;;;;9.27;4.97;;;17.10;99.90;;;;;;1984643;72;25712;-88
2023/08/20 02:38:22;;;;;;;8.33;6.13;;;17.10;99.90;;;;;;1988871;71;25320;-87
2023/08/20 02:47:02;;;;;;;12.87;7.30;;;17.00;99.90;;;;;;1977035;71;27491;-88
2023/08/20 02:49:52;;;;;;;11.40;6.83;;;17.00;99.90;;;;;;1946290;72;25240;-88
2023/08/20 02:52:41;;;;;;;10.43;7.37;;;17.10;99.90;;;;;;2045287;69;25752;-88
2023/08/20 02:55:31;;;;;;;8.37;6.97;;;17.10;99.90;;;;;;2030883;70;25182;-88
2023/08/20 02:58:20;;;;;;;8.17;6.50;;;17.10;99.90;;;;;;2031964;69;25691;-88
2023/08/20 03:01:10;;;;;;;10.00;6.50;;;17.10;99.90;;;;;;2034275;69;25703;-88
2023/08/20 03:03:59;;;;;;;11.03;7.10;;;17.00;99.90;;;;;;2059835;69;25196;-88
2023/08/20 03:06:47;;;;;;;8.70;6.90;;;17.00;99.90;;;;;;2029282;69;25263;-88
2023/08/20 03:09:35;;;;;;;11.67;6.80;;;17.00;99.90;;;;;;2021759;69;25189;-88
2023/08/20 03:16:13;;;;;;;9.43;6.27;;;17.00;99.90;;;;;;1972687;71;26961;-88
2023/08/20 03:19:03;;;;;;;8.37;6.47;;;17.00;99.90;;;;;;1999315;70;25198;-87
2023/08/20 03:21:52;;;;;;;9.23;6.47;;;17.00;99.90;;;;;;2028206;70;25214;-88
2023/08/20 03:24:41;;;;;;;8.77;6.50;;;16.90;99.90;;;;;;2015099;70;25151;-87
2023/08/20 03:27:30;;;;;;;9.60;6.40;;;16.90;99.90;;;;;;2000595;70;25595;-87
2023/08/20 03:30:18;;;;;;;8.23;5.93;;;17.00;99.90;;;;;;2024064;70;25211;-87
2023/08/20 03:35:57;;;;;;;8.13;6.17;;;16.90;99.90;;;;;;1944592;72;26499;-87
2023/08/20 03:38:46;;;;;;;8.97;5.53;;;16.90;99.90;;;;;;1937109;73;25634;-89
2023/08/20 03:46:25;;;;;;;6.57;5.67;;;16.80;99.90;;;;;;1987699;71;26261;-88
2023/08/20 03:49:14;;;;;;;7.50;5.40;;;16.80;99.90;;;;;;2026536;70;25208;-88
2023/08/20 03:52:03;;;;;;;8.03;5.70;;;16.90;99.90;;;;;;2030485;70;25132;-88
2023/08/20 03:54:53;;;;;;;11.03;5.43;;;16.80;99.90;;;;;;1984329;70;25184;-88
2023/08/20 03:57:41;;;;;;;8.67;5.63;;;16.90;99.90;;;;;;2011715;70;25212;-88
2023/08/20 04:00:30;;;;;;;8.57;5.67;;;16.80;99.90;;;;;;2005406;70;25323;-88
2023/08/20 04:03:19;;;;;;;9.07;6.00;;;16.80;99.90;;;;;;2006856;70;25235;-87
2023/08/20 04:06:09;;;;;;;8.70;6.07;;;16.80;99.90;;;;;;2014986;70;25236;-88
2023/08/20 04:08:57;;;;;;;8.20;5.77;;;16.80;99.90;;;;;;2028539;70;25205;-88
2023/08/20 04:11:48;;;;;;;8.67;5.37;;;16.80;99.90;;;;;;2016330;70;25305;-88
2023/08/20 04:14:36;;;;;;;8.87;5.23;;;16.80;99.90;;;;;;1999797;70;25335;-88
2023/08/20 04:17:25;;;;;;;6.80;4.77;;;16.80;99.90;;;;;;2014436;70;25326;-88
2023/08/20 04:20:15;;;;;;;6.83;5.27;;;16.80;99.90;;;;;;2016733;70;25228;-88
2023/08/20 04:27:19;;;;;;;7.27;5.30;;;16.80;99.90;;;;;;1983156;71;26504;-88
2023/08/20 04:30:10;;;;;;;7.93;5.27;;;16.80;99.90;;;;;;2028034;70;25257;-88
2023/08/20 04:33:05;;;;;;;8.37;5.30;;;16.70;99.90;;;;;;2021472;70;25242;-88
2023/08/20 04:36:18;;;;;;;6.90;5.10;;;16.70;99.90;;;;;;2005420;70;25174;-88
2023/08/20 04:42:36;;;;;;;10.30;5.33;;;16.60;99.90;;;;;;2005304;70;25810;-88
2023/08/20 04:45:26;;;;;;;6.93;5.37;;;16.60;99.90;;;;;;1978019;72;25346;-88
2023/08/20 04:48:16;;;;;;;9.37;5.70;;;16.50;99.90;;;;;;1995930;72;25254;-88
2023/08/20 04:54:20;;;;;;;9.80;5.53;;;16.40;99.90;;;;;;2003771;71;26268;-89
2023/08/20 04:57:09;;;;;;;7.40;5.33;;;16.40;99.90;;;;;;1978449;71;25250;-88
2023/08/20 04:59:58;;;;;;;7.50;5.43;;;16.40;99.90;;;;;;1976845;71;25205;-88
2023/08/20 05:17:52;;;;;;;7.70;4.90;;;16.40;99.90;;;;;;1869296;74;27040;-89
2023/08/20 05:23:57;;;;;;;7.23;4.43;;;16.40;99.90;;;;;;1953586;72;27094;-88
2023/08/20 05:40:48;;;;;;;6.47;4.90;;;16.40;99.90;;;;;;1934020;73;26335;-89
2023/08/20 06:01:06;;;;;;;9.50;5.13;;;16.30;99.90;;;;;;1982452;71;26397;-89
2023/08/20 06:03:55;;;;;;;10.03;4.73;;;16.20;99.90;;;;;;2031915;70;25656;-89
2023/08/20 06:06:44;;;;;;;8.47;4.33;;;16.20;99.90;;;;;;1971623;72;25343;-88
2023/08/20 06:09:33;;;;;;;8.33;4.73;;;16.20;99.90;;;;;;1972728;72;25231;-88
2023/08/20 06:12:25;;;;;;;6.03;4.60;;;16.20;99.90;;;;;;1955800;72;26512;-89
2023/08/20 06:45:11;;;;;;;5.50;3.70;;;16.30;99.90;;;;;;1962845;71;26351;-89
2023/08/20 06:50:54;;;;;;;4.33;3.00;;;16.30;99.90;;;;;;1954299;72;26975;-89
2023/08/20 07:07:19;;;;;;;5.70;3.30;;;16.30;99.90;;;;;;1891514;74;27012;-89
2023/08/20 07:13:05;;;;;;;3.77;2.80;;;16.30;99.90;;;;;;1951916;72;26716;-89
2023/08/20 07:15:55;;;;;;;8.27;2.93;;;16.30;99.90;;;;;;1933590;73;25238;-89
2023/08/20 07:22:01;;;;;;;3.60;2.83;;;16.40;99.90;;;;;;2002258;70;26786;-89
2023/08/20 07:24:50;;;;;;;5.07;2.90;;;16.40;99.90;;;;;;1993594;71;25146;-89
2023/08/20 07:27:43;;;;;;;5.13;2.80;;;16.50;99.90;;;;;;1975772;71;26371;-89
2023/08/20 07:30:32;;;;;;;4.53;2.80;;;16.50;99.90;;;;;;1984943;71;25230;-89
2023/08/20 07:33:22;;;;;;;4.00;2.80;;;16.50;99.90;;;;;;2007366;71;25755;-89
2023/08/20 07:52:15;;;;;;;4.27;3.00;;;16.50;99.90;;;;;;1884585;74;26320;-90
2023/08/20 07:57:52;;;;;;;3.23;2.70;;;16.50;99.90;;;;;;1931390;74;27024;-90
2023/08/20 08:00:41;;;;;;;2.70;2.23;;;16.50;99.90;;;;;;1870040;75;25248;-89
2023/08/20 08:03:30;;;;;;;2.73;2.53;;;16.50;99.90;;;;;;1888204;75;25245;-89
2023/08/20 08:06:19;;;;;;;5.47;2.90;;;16.50;99.90;;;;;;1888809;75;25293;-89
2023/08/20 08:13:06;;;;;;;5.30;2.73;;;16.50;99.90;;;;;;1941146;72;27038;-89
2023/08/20 08:19:09;;;;;;;2.87;2.20;;;16.50;99.90;;;;;;1957210;72;27567;-89
2023/08/20 08:21:58;;;;;;;2.33;2.00;;;16.50;99.90;;;;;;1970418;72;25210;-89
2023/08/20 08:24:47;;;;;;;1.90;1.80;;;16.40;99.90;;;;;;2027060;70;25210;-90
2023/08/20 08:27:36;;;;;;;2.17;2.00;;;16.40;99.90;;;;;;1981546;70;25225;-90
2023/08/20 08:30:25;;;;;;;2.40;2.00;;;16.40;99.90;;;;;;2019205;70;25547;-90
2023/08/20 08:33:14;;;;;;;2.50;2.30;;;16.50;99.90;;;;;;2010429;70;25268;-90
2023/08/20 08:36:04;;;;;;;2.37;2.00;;;16.50;99.90;;;;;;2023887;70;25233;-88
2023/08/20 08:38:53;;;;;;;3.30;2.40;;;16.50;99.90;;;;;;2007782;70;25228;-89
2023/08/20 08:41:44;;;;;;;2.63;2.23;;;16.50;99.90;;;;;;2030785;70;25188;-89
2023/08/20 08:44:33;;;;;;;2.10;1.90;;;16.50;99.90;;;;;;1989970;70;25172;-89
2023/08/20 08:47:25;;;;;;;3.13;1.93;;;16.60;99.90;;;;;;1953524;72;25662;-89
2023/08/20 08:50:15;;;;;;;2.00;1.90;;;16.60;99.90;;;;;;1980912;70;25213;-89
2023/08/20 08:53:05;;;;;;;2.30;2.10;;;16.60;99.90;;;;;;1998868;70;25225;-89
2023/08/20 08:55:54;;;;;;;2.00;1.80;;;16.60;99.90;;;;;;1985632;71;25824;-89
2023/08/20 08:58:43;;;;;;;2.00;1.80;;;16.60;99.90;;;;;;1956665;72;25268;-89
2023/08/20 09:01:32;;;;;;;2.00;1.90;;;16.60;99.90;;;;;;1995505;70;25145;-89
2023/08/20 09:04:21;;;;;;;2.23;1.80;;;16.60;99.90;;;;;;1985781;70;25286;-89
2023/08/20 09:07:13;;;;;;;2.20;2.00;;;16.60;99.90;;;;;;1976632;71;25213;-88
2023/08/20 09:10:01;;;;;;;2.10;1.90;;;16.60;99.90;;;;;;1987116;70;25188;-89
2023/08/20 09:12:50;;;;;;;2.00;1.90;;;16.60;99.90;;;;;;2012710;70;25263;-89
2023/08/20 09:15:39;;;;;;;2.30;2.07;;;16.70;99.90;;;;;;2008185;70;25668;-89
2023/08/20 09:32:06;;;;;;;3.93;1.60;;;16.80;99.90;;;;;;1885231;74;27113;-89
2023/08/20 09:48:19;;;;;;;2.13;1.40;;;16.90;99.90;;;;;;1879612;75;27111;-90
2023/08/20 09:54:21;;;;;;;1.37;1.20;;;17.10;99.90;;;;;;1934124;72;27106;-89
2023/08/20 10:00:16;;;;;;;1.77;1.37;;;17.30;99.90;;;;;;1945113;72;26657;-90
2023/08/20 10:03:14;;;;;;;1.20;1.20;;;17.40;99.90;;;;;;1934868;73;25688;-90
2023/08/20 10:06:19;;;;;;;1.40;1.30;;;17.50;99.90;;;;;;1913007;73;25692;-90
2023/08/20 10:09:10;;;;;;;1.20;1.20;;;17.50;99.90;;;;;;1906625;73;25653;-90
2023/08/20 10:12:01;;;;;;;1.10;1.10;;;17.40;99.90;;;;;;1907737;75;25262;-90
2023/08/20 10:14:52;;;;;;;1.57;1.00;;;17.60;99.90;;;;;;1856138;76;25803;-90
2023/08/20 10:18:07;;;;;;;1.20;1.20;;;17.70;99.90;;;;;;1872212;75;25706;-90
2023/08/20 10:21:27;;;;;;;1.20;1.10;;;17.80;99.90;;;;;;1871347;75;25319;-90
2023/08/20 10:24:32;;;;;;;4.63;1.30;;;17.90;99.90;;;;;;1891545;75;25251;-90
2023/08/20 10:28:06;;;;;;;1.00;1.00;;;17.90;99.90;;;;;;1898954;75;25219;-90
2023/08/20 10:31:35;;;;;;;1.10;1.00;;;17.90;99.90;;;;;;1891285;75;25235;-89
2023/08/20 11:18:27;;;;;;;0.93;0.93;;;18.60;99.90;;;;;;1972893;72;32450;-88
2023/08/20 11:36:00;;;;;;;1.30;1.20;;;18.50;99.90;;;;;;1880322;74;27037;-88
2023/08/20 11:41:37;;;;;;;1.53;1.30;;;18.10;99.90;;;;;;1920700;72;27065;-88
2023/08/20 11:44:27;;;;;;;3.73;1.33;;;18.10;99.90;;;;;;1881421;75;25240;-88
2023/08/20 11:47:19;;;;;;;2.07;1.30;;;18.00;99.90;;;;;;1880765;75;25212;-86
2023/08/20 11:50:10;;;;;;;1.40;1.30;;;18.10;99.90;;;;;;1836756;78;25330;-89
2023/08/20 11:53:10;;;;;;;1.83;1.30;;;18.10;99.90;;;;;;1869159;75;25186;-88
2023/08/20 11:55:55;;;;;;;1.60;1.50;;;18.10;99.90;;;;;;1862990;75;25901;-89
2023/08/20 11:58:44;;;;;;;3.17;1.50;;;17.90;99.90;;;;;;1879670;75;25850;-89
2023/08/20 12:01:33;;;;;;;2.20;1.63;;;17.90;99.90;;;;;;1869655;76;25774;-89
2023/08/20 12:07:16;;;;;;;1.70;1.60;;;18.00;99.90;;;;;;1941004;72;27117;-87
2023/08/20 12:10:23;;;;;;;1.53;1.43;;;18.00;99.90;;;;;;1897150;75;25774;-88
2023/08/20 12:13:12;;;;;;;1.40;1.30;;;18.10;99.90;;;;;;1888988;75;25161;-88
2023/08/20 12:29:08;;;;;;;1.70;1.60;;;18.00;99.90;;;;;;1857360;75;27119;-87
2023/08/20 12:31:56;;;;;;;1.70;1.60;;;18.10;99.90;;;;;;1781561;79;25275;-87
2023/08/20 12:39:00;;;;;;;2.40;1.77;;;18.20;99.90;;;;;;2048465;68;27511;-87
2023/08/20 12:44:33;;;;;;;2.00;1.80;;;18.20;99.90;;;;;;1938103;72;26988;-88
2023/08/20 12:47:21;;;;;;;3.40;1.90;;;18.10;99.90;;;;;;1889806;75;25179;-88
2023/08/20 12:50:13;;;;;;;2.60;1.80;;;18.20;99.90;;;;;;1891991;75;25308;-87
2023/08/20 12:53:01;;;;;;;2.30;2.10;;;18.20;99.90;;;;;;1888686;75;25220;-87
2023/08/20 12:55:50;;;;;;;2.97;1.80;;;18.20;99.90;;;;;;1898737;75;25311;-88
2023/08/20 12:58:38;;;;;;;2.10;2.00;;;18.20;99.90;;;;;;1901324;75;25231;-87
2023/08/20 13:01:27;;;;;;;6.80;1.93;;;18.20;99.90;;;;;;1893630;75;25287;-88
2023/08/20 13:07:01;;;;;;;2.80;2.00;;;18.10;99.90;;;;;;1888210;74;27087;-87
2023/08/20 13:12:31;;;;;;;2.73;2.27;;;18.20;99.90;;;;;;1943990;72;26957;-88
2023/08/20 13:29:20;;;;;;;2.20;2.10;;;18.20;99.90;;;;;;1936444;73;26508;-88
2023/08/20 13:32:09;;;;;;;2.47;2.10;;;18.20;99.90;;;;;;1946220;73;25835;-88
2023/08/20 13:38:18;;;;;;;3.37;2.10;;;18.40;99.90;;;;;;2122119;66;26970;-88
2023/08/20 13:41:07;;;;;;;2.30;2.10;;;18.40;99.90;;;;;;2064356;68;25165;-88
2023/08/20 13:46:35;;;;;;;2.33;2.13;;;18.50;99.90;;;;;;1925186;72;26875;-88
2023/08/20 13:49:23;;;;;;;1.97;1.87;;;18.60;99.90;;;;;;1904801;73;25246;-87
2023/08/20 13:55:32;;;;;;;4.03;2.00;;;18.60;99.90;;;;;;2033330;69;26241;-88
2023/08/20 13:58:21;;;;;;;2.67;2.00;;;18.60;99.90;;;;;;2034967;70;25628;-88
2023/08/20 14:01:11;;;;;;;3.17;2.30;;;18.60;99.90;;;;;;2041983;69;25674;-88
2023/08/20 14:04:00;;;;;;;3.17;2.17;;;18.70;99.90;;;;;;2033638;70;25278;-88
2023/08/20 14:06:48;;;;;;;4.27;2.20;;;18.70;99.90;;;;;;1960828;71;25160;-88
2023/08/20 14:09:36;;;;;;;1.90;1.80;;;18.90;99.90;;;;;;2015258;70;25865;-88
2023/08/20 14:12:25;;;;;;;2.30;2.10;;;19.00;99.90;;;;;;1980526;71;25195;-88
2023/08/20 14:15:14;;;;;;;2.13;2.00;;;19.20;99.90;;;;;;1970986;72;25350;-88
2023/08/20 14:18:04;;;;;;;3.93;2.10;;;19.20;99.90;;;;;;1991751;70;25152;-88
2023/08/20 14:20:52;;;;;;;3.17;2.13;;;19.00;99.90;;;;;;1997244;70;25777;-88
2023/08/20 14:23:41;;;;;;;2.20;2.10;;;19.00;99.90;;;;;;1998248;70;25223;-88
2023/08/20 14:26:30;;;;;;;2.27;2.10;;;18.90;99.90;;;;;;1995646;71;25208;-88
2023/08/20 14:29:20;;;;;;;3.63;2.00;;;18.90;99.90;;;;;;2027109;70;25232;-88
2023/08/20 14:32:09;;;;;;;2.43;2.20;;;19.00;99.90;;;;;;2033097;70;25237;-88
2023/08/20 14:34:59;;;;;;;4.77;2.23;;;18.90;99.90;;;;;;1998836;71;25143;-88
2023/08/20 14:37:48;;;;;;;2.20;2.10;;;18.90;99.90;;;;;;2029611;70;25287;-88
2023/08/20 14:40:40;;;;;;;2.83;2.53;;;18.90;99.90;;;;;;2024155;70;25261;-88
2023/08/20 14:46:13;;;;;;;2.67;2.47;;;19.10;99.90;;;;;;1928036;72;27039;-88
2023/08/20 14:49:02;;;;;;;5.67;3.00;;;19.40;99.90;;;;;;1904039;74;25219;-88
2023/08/20 14:51:50;;;;;;;2.80;2.20;;;19.40;99.90;;;;;;1900249;74;25206;-88
2023/08/20 14:54:41;;;;;;;4.17;2.40;;;19.50;99.90;;;;;;1871411;76;25329;-87
2023/08/20 14:57:30;;;;;;;2.73;2.40;;;19.60;99.90;;;;;;1800934;78;25284;-87
2023/08/20 15:00:22;;;;;;;2.60;2.33;;;19.60;99.90;;;;;;1890189;74;25243;-88
2023/08/20 15:03:11;;;;;;;2.50;2.20;;;19.60;99.90;;;;;;1867227;76;25257;-88
2023/08/20 15:06:00;;;;;;;2.50;2.30;;;19.40;99.90;;;;;;1807363;77;25311;-87
2023/08/20 15:08:49;;;;;;;2.50;2.30;;;19.50;99.90;;;;;;1842698;77;25248;-87
2023/08/20 15:11:37;;;;;;;2.33;2.20;;;19.50;99.90;;;;;;1856119;76;25320;-87
2023/08/20 15:27:37;;;;;;;2.60;2.07;;;19.30;99.90;;;;;;1931970;74;27778;-88
2023/08/20 15:33:08;;;;;;;3.83;2.33;;;19.70;99.90;;;;;;1896341;74;27652;-87
2023/08/20 15:35:58;;;;;;;2.60;2.40;;;19.90;99.90;;;;;;1846164;75;25669;-87
2023/08/20 15:38:47;;;;;;;3.37;2.30;;;20.00;99.90;;;;;;1855201;75;25213;-88
2023/08/20 15:41:37;;;;;;;4.47;2.40;;;20.00;99.90;;;;;;1841901;75;25339;-88
2023/08/20 15:44:25;;;;;;;3.00;2.07;;;20.00;99.90;;;;;;1856510;77;25770;-88
2023/08/20 15:47:14;;;;;;;2.53;2.33;;;20.10;99.90;;;;;;1858918;77;26687;-87
2023/08/20 15:50:03;;;;;;;2.70;2.40;;;20.10;99.90;;;;;;1854394;77;25304;-88
2023/08/20 15:56:10;;;;;;;2.87;2.43;;;20.30;99.90;;;;;;1987518;71;28379;-88
2023/08/20 15:58:59;;;;;;;3.00;2.40;;;20.10;99.90;;;;;;2033266;70;25735;-88
2023/08/20 16:01:47;;;;;;;2.80;2.57;;;19.90;99.90;;;;;;2016749;70;25288;-88
2023/08/20 16:04:37;;;;;;;2.83;2.47;;;19.90;99.90;;;;;;2031240;70;25189;-88
2023/08/20 16:07:26;;;;;;;4.23;2.87;;;19.90;99.90;;;;;;2021990;70;25240;-88
2023/08/20 16:12:59;;;;;;;3.20;2.73;;;19.90;99.90;;;;;;1947338;71;26885;-87
2023/08/20 16:15:49;;;;;;;3.43;2.63;;;19.80;99.90;;;;;;1939772;73;25172;-87
2023/08/20 16:18:37;;;;;;;3.27;2.80;;;19.80;99.90;;;;;;1946587;72;25191;-87
2023/08/20 16:21:26;;;;;;;3.03;2.80;;;19.70;99.90;;;;;;1917740;72;25232;-87
2023/08/20 16:24:15;;;;;;;2.83;2.63;;;19.70;99.90;;;;;;1916780;72;25323;-87
2023/08/20 16:29:47;;;;;;;3.93;2.33;;;19.90;99.90;;;;;;1929446;72;27592;-88
2023/08/20 16:46:35;;;;;;;4.10;2.47;;;19.80;99.90;;;;;;1938128;73;27011;-88
2023/08/20 16:52:39;;;;;;;2.60;2.40;;;20.00;99.90;;;;;;1952194;72;27563;-88
2023/08/20 16:58:23;;;;;;;2.90;2.70;;;20.10;99.90;;;;;;1914493;74;27088;-88
2023/08/20 17:03:58;;;;;;;4.23;2.60;;;20.10;99.90;;;;;;1954255;72;27347;-88
2023/08/20 17:06:48;;;;;;;3.10;2.90;;;20.00;99.90;;;;;;1946459;73;25274;-88
2023/08/20 17:09:37;;;;;;;4.20;3.30;;;19.90;99.90;;;;;;1938041;72;25185;-88
2023/08/20 17:12:26;;;;;;;5.43;3.30;;;19.90;99.90;;;;;;1928586;73;25133;-88
2023/08/20 17:15:16;;;;;;;3.60;3.10;;;19.90;99.90;;;;;;1937954;73;25634;-88
2023/08/20 17:18:05;;;;;;;4.93;3.57;;;19.90;99.90;;;;;;1931287;73;25261;-88
2023/08/20 17:20:55;;;;;;;4.10;3.67;;;19.90;99.90;;;;;;1919067;73;25208;-87
2023/08/20 17:23:44;;;;;;;5.60;4.00;;;19.90;99.90;;;;;;1930871;72;26450;-88
2023/08/20 17:26:33;;;;;;;5.73;3.97;;;19.80;99.90;;;;;;1937199;73;25281;-88
2023/08/20 17:29:22;;;;;;;7.50;4.40;;;19.70;99.90;;;;;;1936553;72;25699;-87
2023/08/20 17:32:11;;;;;;;9.90;4.17;;;19.70;99.90;;;;;;1938187;72;25958;-88
2023/08/20 17:35:00;;;;;;;4.93;3.93;;;19.80;99.90;;;;;;1901347;73;25291;-88
2023/08/20 17:37:49;;;;;;;7.17;3.93;;;19.80;99.90;;;;;;1927378;73;25705;-87
2023/08/20 17:40:38;;;;;;;8.33;4.43;;;19.70;99.90;;;;;;1935106;73;25275;-88
2023/08/20 17:46:09;;;;;;;7.90;4.93;;;19.50;99.90;;;;;;1949724;72;27394;-87
2023/08/20 17:48:58;;;;;;;8.27;4.50;;;19.50;99.90;;;;;;1942936;73;25232;-87
2023/08/20 17:51:48;;;;;;;7.10;4.40;;;19.40;99.90;;;;;;1918580;73;25697;-88
2023/08/20 17:54:36;;;;;;;9.57;4.20;;;19.40;99.90;;;;;;1924321;73;25191;-87
2023/08/20 17:57:25;;;;;;;7.67;4.77;;;19.30;99.90;;;;;;1947061;72;25312;-87
2023/08/20 18:00:17;;;;;;;7.73;4.77;;;19.20;99.90;;;;;;1950222;73;25251;-88
2023/08/20 18:03:06;;;;;;;7.50;4.40;;;19.00;99.90;;;;;;1926970;73;25280;-88
2023/08/20 18:05:56;;;;;;;11.03;4.97;;;19.00;99.90;;;;;;1947877;73;25225;-87
2023/08/20 18:11:33;;;;;;;8.03;4.53;;;18.90;99.90;;;;;;1945434;72;26913;-88
2023/08/20 18:14:22;;;;;;;13.03;4.83;;;18.70;99.90;;;;;;1943717;72;25213;-88
2023/08/20 18:17:11;;;;;;;7.83;4.50;;;18.70;99.90;;;;;;1933841;73;25204;-87
2023/08/20 18:22:51;;;;;;;11.70;5.17;;;18.50;99.90;;;;;;1979318;71;27095;-88
2023/08/20 18:25:40;;;;;;;8.70;4.67;;;18.50;99.90;;;;;;1939356;73;25198;-88
2023/08/20 18:28:29;;;;;;;13.87;4.70;;;18.40;99.90;;;;;;1923319;73;25255;-88
2023/08/20 18:31:18;;;;;;;11.10;4.93;;;18.20;99.90;;;;;;1930729;73;25245;-88
2023/08/20 18:34:07;;;;;;;11.93;4.73;;;18.10;99.90;;;;;;1903226;73;25295;-88
2023/08/20 18:36:56;;;;;;;9.67;4.90;;;18.10;99.90;;;;;;1930994;73;25236;-88
2023/08/20 18:39:45;;;;;;;10.47;4.60;;;18.00;99.90;;;;;;1926518;73;25290;-88
2023/08/20 18:42:34;;;;;;;9.17;4.57;;;18.00;99.90;;;;;;1921805;73;25294;-88
2023/08/20 18:45:23;;;;;;;12.23;4.73;;;17.90;99.90;;;;;;1900086;74;25231;-88
2023/08/20 18:48:12;;;;;;;12.90;5.00;;;17.90;99.90;;;;;;1902663;75;25329;-88
2023/08/20 18:51:02;;;;;;;14.00;4.93;;;17.90;99.90;;;;;;1868913;76;25606;-88
2023/08/20 18:53:52;;;;;;;11.40;4.60;;;17.90;99.90;;;;;;1823984;78;25246;-88
2023/08/20 18:56:42;;;;;;;11.80;6.17;;;17.90;99.90;;;;;;1837315;78;25295;-88
2023/08/20 19:12:41;;;;;;;15.20;5.07;;;17.80;99.90;;;;;;1864983;75;27100;-88
2023/08/20 19:18:42;;;;;;;16.07;5.83;;;17.50;99.90;;;;;;1982522;71;27465;-88
2023/08/20 19:21:31;;;;;;;11.90;5.57;;;17.40;99.90;;;;;;2011482;69;25206;-88
2023/08/20 19:24:21;;;;;;;15.73;5.27;;;17.20;99.90;;;;;;2022195;70;25282;-88
2023/08/20 19:27:11;;;;;;;14.53;4.90;;;17.20;99.90;;;;;;2005382;70;25279;-88
2023/08/20 19:29:59;;;;;;;13.90;4.90;;;17.20;99.90;;;;;;2008944;70;25192;-88
2023/08/20 19:32:48;;;;;;;9.30;4.50;;;17.30;99.90;;;;;;2003847;70;25241;-88
2023/08/20 19:38:22;;;;;;;16.30;4.60;;;17.30;99.90;;;;;;2024621;69;26887;-88
2023/08/20 19:45:29;;;;;;;18.07;4.43;;;17.30;99.90;;;;;;1973016;71;26831;-87
2023/08/20 19:48:18;;;;;;;14.33;4.33;;;17.30;99.90;;;;;;2018263;70;25192;-87
2023/08/20 19:51:07;;;;;;;11.93;4.30;;;17.30;99.90;;;;;;2018001;70;25208;-87
2023/08/20 19:53:57;;;;;;;14.97;4.67;;;17.20;99.90;;;;;;2009593;70;25145;-88
2023/08/20 19:56:47;;;;;;;13.13;3.90;;;17.20;99.90;;;;;;2015162;70;25271;-88
2023/08/20 19:59:36;;;;;;;14.57;3.80;;;17.20;99.90;;;;;;2001988;70;25285;-88
2023/08/20 20:05:09;;;;;;;12.87;3.90;;;17.20;99.90;;;;;;1942669;72;26906;-88
2023/08/20 20:10:40;;;;;;;15.33;4.33;;;17.10;99.90;;;;;;1950769;72;27500;-88
2023/08/20 20:13:29;;;;;;;11.63;3.93;;;17.10;99.90;;;;;;1872564;76;25216;-88
2023/08/20 20:16:17;;;;;;;11.73;3.97;;;17.00;99.90;;;;;;1841529;77;25305;-88
2023/08/20 20:32:52;;;;;;;13.27;3.53;;;17.00;99.90;;;;;;1954391;71;26369;-87
2023/08/20 20:35:40;;;;;;;13.33;4.13;;;17.00;99.90;;;;;;1985791;72;25658;-87
2023/08/20 20:38:29;;;;;;;11.43;3.90;;;17.00;99.90;;;;;;1977258;72;25299;-87
2023/08/20 20:43:58;;;;;;;14.27;4.00;;;17.00;99.90;;;;;;1972013;71;27077;-87
2023/08/20 20:46:46;;;;;;;16.07;4.17;;;17.00;99.90;;;;;;1931955;73;25195;-88
2023/08/20 20:49:36;;;;;;;9.70;3.57;;;17.00;99.90;;;;;;1932276;73;25213;-88
2023/08/20 20:52:24;;;;;;;11.63;3.67;;;17.00;99.90;;;;;;1938225;73;25225;-88
2023/08/20 20:55:13;;;;;;;11.53;3.77;;;17.00;99.90;;;;;;1904402;74;25234;-88
2023/08/20 20:58:03;;;;;;;13.77;3.90;;;16.90;99.90;;;;;;1891876;74;25282;-87
2023/08/20 21:00:54;;;;;;;13.23;4.33;;;17.00;99.90;;;;;;1881765;74;25234;-88
2023/08/20 21:03:43;;;;;;;10.87;4.23;;;16.90;99.90;;;;;;1889728;75;25781;-88
2023/08/20 21:06:35;;;;;;;12.20;3.60;;;16.90;99.90;;;;;;1937905;73;25246;-88
2023/08/20 21:09:27;;;;;;;15.07;4.40;;;16.90;99.90;;;;;;1946432;73;25267;-88
2023/08/20 21:12:16;;;;;;;13.10;4.10;;;16.90;99.90;;;;;;1945520;73;25207;-88
2023/08/20 21:15:05;;;;;;;10.47;3.97;;;16.90;99.90;;;;;;1936881;72;25689;-88
2023/08/20 21:17:56;;;;;;;13.13;4.10;;;16.90;99.90;;;;;;1939648;72;25291;-88
2023/08/20 21:20:49;;;;;;;11.47;3.50;;;16.90;99.90;;;;;;1944788;73;25760;-88
2023/08/20 21:23:38;;;;;;;8.83;3.40;;;16.90;99.90;;;;;;1952742;72;25190;-88
2023/08/20 21:26:27;;;;;;;12.00;3.57;;;16.90;99.90;;;;;;1935861;73;25785;-88
2023/08/20 21:29:17;;;;;;;13.27;3.63;;;16.90;99.90;;;;;;1932241;73;25690;-88
2023/08/20 21:32:09;;;;;;;10.17;3.53;;;16.80;99.90;;;;;;1935514;73;25202;-88
2023/08/20 21:35:00;;;;;;;14.40;3.30;;;16.80;99.90;;;;;;1939625;72;25152;-88
2023/08/20 21:37:52;;;;;;;14.23;3.70;;;16.80;99.90;;;;;;1919677;73;25192;-88
2023/08/20 21:40:42;;;;;;;15.07;3.60;;;16.80;99.90;;;;;;1934468;73;25234;-88
2023/08/20 21:57:11;;;;;;;14.83;3.73;;;16.70;99.90;;;;;;1888692;75;27106;-88
2023/08/20 22:00:00;;;;;;;14.67;4.20;;;16.60;99.90;;;;;;1856514;76;25265;-88
2023/08/20 22:02:49;;;;;;;13.10;4.27;;;16.60;99.90;;;;;;1843896;75;25218;-88
2023/08/20 22:08:24;;;;;;;11.00;4.13;;;16.60;99.90;;;;;;1987284;71;27019;-88
2023/08/20 22:11:12;;;;;;;11.93;4.23;;;16.50;99.90;;;;;;1941223;72;25347;-88
2023/08/20 22:16:55;;;;;;;16.57;4.43;;;16.50;99.90;;;;;;1953244;72;26931;-87
2023/08/20 22:19:45;;;;;;;15.60;4.20;;;16.50;99.90;;;;;;1929196;73;25224;-87
2023/08/20 22:22:34;;;;;;;17.73;4.13;;;16.50;99.90;;;;;;1943338;72;25286;-88
2023/08/20 22:25:23;;;;;;;16.63;3.90;;;16.60;99.90;;;;;;1938717;73;25771;-88
2023/08/20 22:28:11;;;;;;;15.20;3.83;;;16.60;99.90;;;;;;1937714;73;25271;-88
2023/08/20 22:45:00;;;;;;;15.13;4.47;;;16.60;99.90;;;;;;1901720;73;26929;-88
2023/08/20 22:50:32;;;;;;;14.07;4.77;;;16.50;99.90;;;;;;1989912;71;27074;-88